createdAt,value
2018-01-27T00:00:58.403Z,48.15
2018-01-27T00:02:00.891Z,46.13
2018-01-27T00:03:03.363Z,45.47
2018-01-27T00:04:05.831Z,38.75
2018-01-27T00:05:08.304Z,43.47
2018-01-27T00:06:10.779Z,42.38
2018-01-27T00:07:13.297Z,45.30
2018-01-27T00:08:16.221Z,53.13
2018-01-27T00:09:18.687Z,38.92
2018-01-27T00:10:21.146Z,40.83
2018-01-27T00:11:23.629Z,33.28
2018-01-27T00:12:26.119Z,34.05
2018-01-27T00:13:28.582Z,31.30
2018-01-27T00:14:31.061Z,39.95
2018-01-27T00:15:33.540Z,33.55
2018-01-27T00:16:36.017Z,28.98
2018-01-27T00:17:38.515Z,33.13
2018-01-27T00:18:40.998Z,39.17
2018-01-27T00:19:43.489Z,39.38
2018-01-27T00:20:45.969Z,34.50
2018-01-27T00:21:48.510Z,39.28
2018-01-27T00:22:52.852Z,40.67
2018-01-27T00:23:55.315Z,38.97
2018-01-27T00:24:57.824Z,48.15
2018-01-27T00:26:00.295Z,39.38
2018-01-27T00:27:02.762Z,33.00
2018-01-27T00:28:05.300Z,36.88
2018-01-27T00:29:07.775Z,44.00
2018-01-27T00:30:10.235Z,30.65
2018-01-27T00:31:12.716Z,36.85
2018-01-27T00:32:15.191Z,41.03
2018-01-27T00:33:17.654Z,34.60
2018-01-27T00:34:20.136Z,33.10
2018-01-27T00:35:22.706Z,40.28
2018-01-27T00:36:25.189Z,30.10
2018-01-27T00:37:27.668Z,37.85
2018-01-27T00:38:30.152Z,34.63
2018-01-27T00:39:32.638Z,32.80
2018-01-27T00:40:35.106Z,43.60
2018-01-27T00:41:37.591Z,32.50
2018-01-27T00:42:40.074Z,31.90
2018-01-27T00:43:42.538Z,33.67
2018-01-27T00:44:45.017Z,27.90
2018-01-27T00:45:47.492Z,32.38
2018-01-27T00:46:49.963Z,30.10
2018-01-27T00:47:52.426Z,32.08
2018-01-27T00:48:54.890Z,34.28
2018-01-27T00:49:57.354Z,28.55
2018-01-27T00:50:59.882Z,32.95
2018-01-27T00:52:02.350Z,38.20
2018-01-27T00:53:04.881Z,34.00
2018-01-27T00:54:07.347Z,39.38
2018-01-27T00:55:09.814Z,40.10
2018-01-27T00:56:12.298Z,32.95
2018-01-27T00:57:14.768Z,34.80
2018-01-27T00:58:17.239Z,38.00
2018-01-27T00:59:19.738Z,32.50
2018-01-27T01:00:22.224Z,35.58
2018-01-27T01:01:24.771Z,43.42
2018-01-27T01:02:27.258Z,30.65
2018-01-27T01:03:29.722Z,34.58
2018-01-27T01:04:32.201Z,38.50
2018-01-27T01:05:34.684Z,27.70
2018-01-27T01:06:37.168Z,35.08
2018-01-27T01:07:39.650Z,35.72
2018-01-27T01:08:42.127Z,31.90
2018-01-27T01:09:44.594Z,30.92
2018-01-27T01:10:47.058Z,27.05
2018-01-27T01:11:49.527Z,25.10
2018-01-27T01:12:52.017Z,26.73
2018-01-27T01:13:54.486Z,29.20
2018-01-27T01:14:56.969Z,29.50
2018-01-27T01:15:59.460Z,29.65
2018-01-27T01:17:01.933Z,30.60
2018-01-27T01:18:04.397Z,31.35
2018-01-27T01:19:06.863Z,37.30
2018-01-27T01:20:09.342Z,30.92
2018-01-27T01:21:11.829Z,27.65
2018-01-27T01:22:14.296Z,26.83
2018-01-27T01:23:16.786Z,32.50
2018-01-27T01:24:19.255Z,31.00
2018-01-27T01:25:21.735Z,39.28
2018-01-27T01:26:24.199Z,36.88
2018-01-27T01:27:26.662Z,34.40
2018-01-27T01:28:29.128Z,48.10
2018-01-27T01:29:31.586Z,36.15
2018-01-27T01:30:34.098Z,49.38
2018-01-27T01:31:36.575Z,39.28
2018-01-27T01:32:39.042Z,39.13
2018-01-27T01:33:41.510Z,39.92
2018-01-27T01:34:43.970Z,37.35
2018-01-27T01:35:46.444Z,39.97
2018-01-27T01:36:48.925Z,38.30
2018-01-27T01:37:51.501Z,39.53
2018-01-27T01:38:53.967Z,40.83
2018-01-27T01:39:56.426Z,34.38
2018-01-27T01:40:58.891Z,44.90
2018-01-27T01:42:01.355Z,37.35
2018-01-27T01:43:09.441Z,33.97
2018-01-27T01:44:17.415Z,36.35
2018-01-27T01:45:19.897Z,36.45
2018-01-27T01:46:22.377Z,37.38
2018-01-27T01:47:24.839Z,47.65
2018-01-27T01:48:27.316Z,40.20
2018-01-27T01:49:29.792Z,40.05
2018-01-27T01:50:32.273Z,42.83
2018-01-27T01:51:34.738Z,41.70
2018-01-27T01:52:37.211Z,34.78
2018-01-27T01:53:39.688Z,38.00
2018-01-27T01:54:42.155Z,40.33
2018-01-27T01:55:44.623Z,44.95
2018-01-27T01:56:47.102Z,42.33
2018-01-27T01:57:49.568Z,44.47
2018-01-27T01:58:52.035Z,41.75
2018-01-27T01:59:54.498Z,47.38
2018-01-27T02:00:56.976Z,45.35
2018-01-27T02:01:59.442Z,44.05
2018-01-27T02:03:01.907Z,43.50
2018-01-27T02:04:04.388Z,34.55
2018-01-27T02:05:06.850Z,36.53
2018-01-27T02:06:09.329Z,34.45
2018-01-27T02:07:11.806Z,33.22
2018-01-27T02:08:14.274Z,35.55
2018-01-27T02:09:16.743Z,34.33
2018-01-27T02:10:19.211Z,41.10
2018-01-27T02:11:21.671Z,32.40
2018-01-27T02:12:24.138Z,33.67
2018-01-27T02:13:26.610Z,37.75
2018-01-27T02:14:29.195Z,47.72
2018-01-27T02:15:31.677Z,36.13
2018-01-27T02:16:34.184Z,30.88
2018-01-27T02:17:36.642Z,31.98
2018-01-27T02:18:39.107Z,38.75
2018-01-27T02:19:41.585Z,32.97
2018-01-27T02:20:44.069Z,32.97
2018-01-27T02:21:46.546Z,36.72
2018-01-27T02:22:49.050Z,32.13
2018-01-27T02:23:51.517Z,35.63
2018-01-27T02:24:53.996Z,34.63
2018-01-27T02:25:56.458Z,36.15
2018-01-27T02:26:58.939Z,38.33
2018-01-27T02:28:01.424Z,40.15
2018-01-27T02:29:03.913Z,37.00
2018-01-27T02:30:06.393Z,41.83
2018-01-27T02:31:08.918Z,34.60
2018-01-27T02:32:11.363Z,36.17
2018-01-27T02:33:13.834Z,33.83
2018-01-27T02:34:16.317Z,37.85
2018-01-27T02:35:18.793Z,41.33
2018-01-27T02:36:21.260Z,41.25
2018-01-27T02:37:23.748Z,34.40
2018-01-27T02:38:26.214Z,38.30
2018-01-27T02:39:28.678Z,42.03
2018-01-27T02:40:31.147Z,36.03
2018-01-27T02:41:33.709Z,36.85
2018-01-27T02:42:36.179Z,41.80
2018-01-27T02:43:38.645Z,36.92
2018-01-27T02:44:41.106Z,40.22
2018-01-27T02:45:43.584Z,43.67
2018-01-27T02:46:46.065Z,35.55
2018-01-27T02:47:48.540Z,42.72
2018-01-27T02:48:51.021Z,37.65
2018-01-27T02:49:53.497Z,37.15
2018-01-27T02:50:55.967Z,34.35
2018-01-27T02:51:58.453Z,34.53
2018-01-27T02:53:00.932Z,44.42
2018-01-27T02:54:03.413Z,41.67
2018-01-27T02:55:05.884Z,40.45
2018-01-27T02:56:08.377Z,33.25
2018-01-27T02:57:10.883Z,35.13
2018-01-27T02:58:13.356Z,30.58
2018-01-27T02:59:15.833Z,33.95
2018-01-27T03:00:18.313Z,38.00
2018-01-27T03:01:20.782Z,35.53
2018-01-27T03:02:23.275Z,37.70
2018-01-27T03:03:25.756Z,34.40
2018-01-27T03:04:28.218Z,40.92
2018-01-27T03:05:30.702Z,38.80
2018-01-27T03:06:33.178Z,33.35
2018-01-27T03:07:35.643Z,35.55
2018-01-27T03:08:38.117Z,34.72
2018-01-27T03:09:40.578Z,39.58
2018-01-27T03:10:43.058Z,35.75
2018-01-27T03:11:45.526Z,42.08
2018-01-27T03:12:48.009Z,36.42
2018-01-27T03:13:50.493Z,43.47
2018-01-27T03:14:52.976Z,36.05
2018-01-27T03:15:55.453Z,32.00
2018-01-27T03:16:57.910Z,36.35
2018-01-27T03:18:00.393Z,37.28
2018-01-27T03:19:02.868Z,36.85
2018-01-27T03:20:05.349Z,40.25
2018-01-27T03:21:07.829Z,37.25
2018-01-27T03:22:10.304Z,35.05
2018-01-27T03:23:12.777Z,34.58
2018-01-27T03:24:15.260Z,43.28
2018-01-27T03:25:17.741Z,41.45
2018-01-27T03:26:20.224Z,45.00
2018-01-27T03:27:22.692Z,37.22
2018-01-27T03:28:25.173Z,44.25
2018-01-27T03:29:27.638Z,39.08
2018-01-27T03:30:30.119Z,34.70
2018-01-27T03:31:32.636Z,34.90
2018-01-27T03:32:35.125Z,35.20
2018-01-27T03:33:37.605Z,33.25
2018-01-27T03:34:40.084Z,39.47
2018-01-27T03:35:42.557Z,40.05
2018-01-27T03:36:45.023Z,38.47
2018-01-27T03:37:47.492Z,35.60
2018-01-27T03:38:49.958Z,38.92
2018-01-27T03:39:52.451Z,35.33
2018-01-27T03:40:54.925Z,34.20
2018-01-27T03:41:57.395Z,33.17
2018-01-27T03:42:59.873Z,38.17
2018-01-27T03:44:02.339Z,34.13
2018-01-27T03:45:04.824Z,39.47
2018-01-27T03:46:07.287Z,32.05
2018-01-27T03:47:09.752Z,37.38
2018-01-27T03:48:12.230Z,38.67
2018-01-27T03:49:14.694Z,32.05
2018-01-27T03:50:17.193Z,33.90
2018-01-27T03:51:19.663Z,36.45
2018-01-27T03:52:22.153Z,34.10
2018-01-27T03:53:24.633Z,28.70
2018-01-27T03:54:27.113Z,36.00
2018-01-27T03:55:29.578Z,32.13
2018-01-27T03:56:32.046Z,45.40
2018-01-27T03:57:34.520Z,30.20
2018-01-27T03:58:37.028Z,37.47
2018-01-27T03:59:39.486Z,35.17
2018-01-27T04:00:41.961Z,31.40
2018-01-27T04:01:44.436Z,32.92
2018-01-27T04:02:46.917Z,32.63
2018-01-27T04:03:49.405Z,32.80
2018-01-27T04:04:51.872Z,35.72
2018-01-27T04:05:54.350Z,30.02
2018-01-27T04:06:56.826Z,37.80
2018-01-27T04:07:59.390Z,34.33
2018-01-27T04:09:01.873Z,36.50
2018-01-27T04:10:04.335Z,34.25
2018-01-27T04:11:06.820Z,33.13
2018-01-27T04:12:09.286Z,31.27
2018-01-27T04:13:11.770Z,32.65
2018-01-27T04:14:14.253Z,39.80
2018-01-27T04:15:16.730Z,29.98
2018-01-27T04:16:19.194Z,31.02
2018-01-27T04:17:21.676Z,35.88
2018-01-27T04:18:24.138Z,33.03
2018-01-27T04:19:26.608Z,31.20
2018-01-27T04:20:29.080Z,30.10
2018-01-27T04:21:31.560Z,30.83
2018-01-27T04:22:34.043Z,33.83
2018-01-27T04:23:36.539Z,29.52
2018-01-27T04:24:39.017Z,36.47
2018-01-27T04:25:41.493Z,35.22
2018-01-27T04:26:43.972Z,29.92
2018-01-27T04:27:46.458Z,40.95
2018-01-27T04:28:48.941Z,34.63
2018-01-27T04:29:51.422Z,31.37
2018-01-27T04:30:53.899Z,25.65
2018-01-27T04:31:56.385Z,30.90
2018-01-27T04:32:58.866Z,29.40
2018-01-27T04:34:01.349Z,35.03
2018-01-27T04:35:03.819Z,31.33
2018-01-27T04:36:06.290Z,29.63
2018-01-27T04:37:08.768Z,27.23
2018-01-27T04:38:11.258Z,35.75
2018-01-27T04:39:13.733Z,35.22
2018-01-27T04:40:16.212Z,29.67
2018-01-27T04:41:18.686Z,35.40
2018-01-27T04:42:21.162Z,35.83
2018-01-27T04:43:23.627Z,38.40
2018-01-27T04:44:26.090Z,32.90
2018-01-27T04:45:28.546Z,38.65
2018-01-27T04:46:31.007Z,36.83
2018-01-27T04:47:33.505Z,34.72
2018-01-27T04:48:35.969Z,35.00
2018-01-27T04:49:38.461Z,30.25
2018-01-27T04:50:40.922Z,34.10
2018-01-27T04:51:43.409Z,29.33
2018-01-27T04:52:45.901Z,33.92
2018-01-27T04:53:48.367Z,36.30
2018-01-27T04:54:50.849Z,36.45
2018-01-27T04:55:53.325Z,31.80
2018-01-27T04:56:55.790Z,35.63
2018-01-27T04:57:58.256Z,28.10
2018-01-27T04:59:00.737Z,40.47
2018-01-27T05:00:03.216Z,36.97
2018-01-27T05:01:05.697Z,35.22
2018-01-27T05:02:08.182Z,30.30
2018-01-27T05:03:10.664Z,37.40
2018-01-27T05:04:13.126Z,32.95
2018-01-27T05:05:15.664Z,29.00
2018-01-27T05:06:18.144Z,30.15
2018-01-27T05:07:20.641Z,32.50
2018-01-27T05:08:23.122Z,29.83
2018-01-27T05:09:25.586Z,32.55
2018-01-27T05:10:28.077Z,30.33
2018-01-27T05:11:30.561Z,29.08
2018-01-27T05:12:33.040Z,33.42
2018-01-27T05:13:35.538Z,35.35
2018-01-27T05:14:38.028Z,33.17
2018-01-27T05:15:40.522Z,28.42
2018-01-27T05:16:42.992Z,32.15
2018-01-27T05:17:45.472Z,33.67
2018-01-27T05:18:47.953Z,33.20
2018-01-27T05:19:50.461Z,38.05
2018-01-27T05:20:52.945Z,36.80
2018-01-27T05:21:55.428Z,31.70
2018-01-27T05:22:57.896Z,31.17
2018-01-27T05:24:00.376Z,32.20
2018-01-27T05:25:02.843Z,33.75
2018-01-27T05:26:05.328Z,32.17
2018-01-27T05:27:07.814Z,31.10
2018-01-27T05:28:10.305Z,34.00
2018-01-27T05:29:12.766Z,34.30
2018-01-27T05:30:15.244Z,39.60
2018-01-27T05:31:17.722Z,32.03
2018-01-27T05:32:20.189Z,33.85
2018-01-27T05:33:22.706Z,33.53
2018-01-27T05:34:25.195Z,39.13
2018-01-27T05:35:27.658Z,29.83
2018-01-27T05:36:30.136Z,36.63
2018-01-27T05:37:32.606Z,37.60
2018-01-27T05:38:35.088Z,29.67
2018-01-27T05:39:37.620Z,39.95
2018-01-27T05:40:40.069Z,36.00
2018-01-27T05:41:42.549Z,26.98
2018-01-27T05:42:45.025Z,37.17
2018-01-27T05:43:47.492Z,41.55
2018-01-27T05:44:49.972Z,33.83
2018-01-27T05:45:52.457Z,38.88
2018-01-27T05:46:54.940Z,36.78
2018-01-27T05:47:57.421Z,30.90
2018-01-27T05:48:59.886Z,40.40
2018-01-27T05:50:02.377Z,37.10
2018-01-27T05:51:04.845Z,34.78
2018-01-27T05:52:07.310Z,34.80
2018-01-27T05:53:09.779Z,34.63
2018-01-27T05:54:12.261Z,40.45
2018-01-27T05:55:14.752Z,34.72
2018-01-27T05:56:17.249Z,31.58
2018-01-27T05:57:20.549Z,37.05
2018-01-27T05:58:23.055Z,39.10
2018-01-27T05:59:25.572Z,34.97
2018-01-27T06:00:28.058Z,32.10
2018-01-27T06:01:30.546Z,32.20
2018-01-27T06:02:33.011Z,35.78
2018-01-27T06:03:35.493Z,32.60
2018-01-27T06:04:38.013Z,39.67
2018-01-27T06:05:40.462Z,30.20
2018-01-27T06:06:42.941Z,34.58
2018-01-27T06:07:45.425Z,34.15
2018-01-27T06:08:47.890Z,38.25
2018-01-27T06:09:50.358Z,44.10
2018-01-27T06:10:52.832Z,34.60
2018-01-27T06:11:55.298Z,33.05
2018-01-27T06:12:57.776Z,35.97
2018-01-27T06:14:00.328Z,32.78
2018-01-27T06:15:02.794Z,36.35
2018-01-27T06:16:05.269Z,34.05
2018-01-27T06:17:07.749Z,35.25
2018-01-27T06:18:10.228Z,35.80
2018-01-27T06:19:12.709Z,37.38
2018-01-27T06:20:15.193Z,36.65
2018-01-27T06:21:17.669Z,37.00
2018-01-27T06:22:20.191Z,27.65
2018-01-27T06:23:22.658Z,31.20
2018-01-27T06:24:25.145Z,34.33
2018-01-27T06:25:27.621Z,34.28
2018-01-27T06:26:30.101Z,39.75
2018-01-27T06:27:32.570Z,33.38
2018-01-27T06:28:35.040Z,31.83
2018-01-27T06:29:37.524Z,33.95
2018-01-27T06:30:39.986Z,34.85
2018-01-27T06:31:42.446Z,29.65
2018-01-27T06:32:44.960Z,29.42
2018-01-27T06:33:47.452Z,40.00
2018-01-27T06:34:49.915Z,36.05
2018-01-27T06:35:52.396Z,44.53
2018-01-27T06:36:54.868Z,48.97
2018-01-27T06:37:57.348Z,47.53
2018-01-27T06:38:59.832Z,42.30
2018-01-27T06:40:02.303Z,39.63
2018-01-27T06:41:04.782Z,41.17
2018-01-27T06:42:07.247Z,38.72
2018-01-27T06:43:09.723Z,43.00
2018-01-27T06:44:12.190Z,37.30
2018-01-27T06:45:14.664Z,38.20
2018-01-27T06:46:17.152Z,43.60
2018-01-27T06:47:19.627Z,40.95
2018-01-27T06:48:22.141Z,39.63
2018-01-27T06:49:24.606Z,39.67
2018-01-27T06:50:27.092Z,36.63
2018-01-27T06:51:29.577Z,41.47
2018-01-27T06:52:32.066Z,44.15
2018-01-27T06:53:34.542Z,45.83
2018-01-27T06:54:37.014Z,38.05
2018-01-27T06:55:39.516Z,42.97
2018-01-27T06:56:41.983Z,48.00
2018-01-27T06:57:44.470Z,43.35
2018-01-27T06:58:46.955Z,46.70
2018-01-27T06:59:49.421Z,47.17
2018-01-27T07:00:51.912Z,42.80
2018-01-27T07:01:54.383Z,51.10
2018-01-27T07:02:56.869Z,58.08
2018-01-27T07:03:59.353Z,53.72
2018-01-27T07:05:01.848Z,46.03
2018-01-27T07:06:04.315Z,46.40
2018-01-27T07:07:06.816Z,51.72
2018-01-27T07:08:09.283Z,47.60
2018-01-27T07:09:11.754Z,48.22
2018-01-27T07:10:14.237Z,47.13
2018-01-27T07:11:16.725Z,44.50
2018-01-27T07:12:19.214Z,42.50
2018-01-27T07:13:21.691Z,40.53
2018-01-27T07:14:24.173Z,41.63
2018-01-27T07:15:26.662Z,53.33
2018-01-27T07:16:29.145Z,45.45
2018-01-27T07:17:31.624Z,44.63
2018-01-27T07:18:34.101Z,47.53
2018-01-27T07:19:36.588Z,47.75
2018-01-27T07:20:39.060Z,43.97
2018-01-27T07:21:41.523Z,45.88
2018-01-27T07:22:43.990Z,47.70
2018-01-27T07:23:46.479Z,45.97
2018-01-27T07:24:49.000Z,41.35
2018-01-27T07:25:51.544Z,43.60
2018-01-27T07:26:54.027Z,39.95
2018-01-27T07:27:56.490Z,43.40
2018-01-27T07:28:58.954Z,33.70
2018-01-27T07:30:01.423Z,33.40
2018-01-27T07:31:03.900Z,41.08
2018-01-27T07:32:06.384Z,45.28
2018-01-27T07:33:08.865Z,43.50
2018-01-27T07:34:11.341Z,42.25
2018-01-27T07:35:13.826Z,39.67
2018-01-27T07:36:16.304Z,42.10
2018-01-27T07:37:18.774Z,57.95
2018-01-27T07:38:21.401Z,96.93
2018-01-27T07:39:23.876Z,85.97
2018-01-27T07:40:26.358Z,90.93
2018-01-27T07:41:28.929Z,76.95
2018-01-27T07:42:31.395Z,109.65
2018-01-27T07:43:33.884Z,102.95
2018-01-27T07:44:36.367Z,105.72
2018-01-27T07:45:38.834Z,92.47
2018-01-27T07:46:41.298Z,82.20
2018-01-27T07:47:43.770Z,66.12
2018-01-27T07:48:46.242Z,77.37
2018-01-27T07:49:48.716Z,76.05
2018-01-27T07:50:51.193Z,71.25
2018-01-27T07:51:53.661Z,63.47
2018-01-27T07:52:56.127Z,89.70
2018-01-27T07:53:58.625Z,87.37
2018-01-27T07:55:01.103Z,111.47
2018-01-27T07:56:03.638Z,80.05
2018-01-27T07:57:06.103Z,64.97
2018-01-27T07:58:08.579Z,62.67
2018-01-27T07:59:11.057Z,53.53
2018-01-27T08:00:13.541Z,54.03
2018-01-27T08:01:16.011Z,67.72
2018-01-27T08:02:18.493Z,72.22
2018-01-27T08:03:20.965Z,108.18
2018-01-27T08:04:23.452Z,110.85
2018-01-27T08:05:25.922Z,125.85
2018-01-27T08:06:28.426Z,130.90
2018-01-27T08:07:30.912Z,137.48
2018-01-27T08:08:33.407Z,162.60
2018-01-27T08:09:35.912Z,141.50
2018-01-27T08:10:38.406Z,160.90
2018-01-27T08:11:40.896Z,168.98
2018-01-27T08:12:43.422Z,168.65
2018-01-27T08:13:45.935Z,159.73
2018-01-27T08:14:48.430Z,64.80
2018-01-27T08:15:50.935Z,50.92
2018-01-27T08:16:53.464Z,52.97
2018-01-27T08:17:55.969Z,54.90
2018-01-27T08:18:58.488Z,56.28
2018-01-27T08:20:00.964Z,68.97
2018-01-27T08:21:03.462Z,62.47
2018-01-27T08:22:05.968Z,71.97
2018-01-27T08:23:08.448Z,60.15
2018-01-27T08:24:11.027Z,64.53
2018-01-27T08:25:13.547Z,63.20
2018-01-27T08:26:16.041Z,67.00
2018-01-27T08:27:18.512Z,70.47
2018-01-27T08:28:21.033Z,73.40
2018-01-27T08:29:23.576Z,74.53
2018-01-27T08:30:26.131Z,73.68
2018-01-27T08:31:29.212Z,78.75
2018-01-27T08:32:31.740Z,73.62
2018-01-27T08:33:34.255Z,76.25
2018-01-27T08:34:36.759Z,71.22
2018-01-27T08:35:39.264Z,80.47
2018-01-27T08:36:41.769Z,77.82
2018-01-27T08:37:44.276Z,81.55
2018-01-27T08:38:46.751Z,79.60
2018-01-27T08:39:49.244Z,82.65
2018-01-27T08:40:51.722Z,77.15
2018-01-27T08:41:54.190Z,81.47
2018-01-27T08:42:56.667Z,82.20
2018-01-27T08:43:59.200Z,75.50
2018-01-27T08:45:01.654Z,76.53
2018-01-27T08:46:04.130Z,77.53
2018-01-27T08:47:06.605Z,65.90
2018-01-27T08:48:09.076Z,73.12
2018-01-27T08:49:11.571Z,61.95
2018-01-27T08:50:14.035Z,71.90
2018-01-27T08:51:16.517Z,70.15
2018-01-27T08:52:18.983Z,72.03
2018-01-27T08:53:21.478Z,59.28
2018-01-27T08:54:23.941Z,63.13
2018-01-27T08:55:26.407Z,63.47
2018-01-27T08:56:28.876Z,61.05
2018-01-27T08:57:31.340Z,60.40
2018-01-27T08:58:33.803Z,53.10
2018-01-27T08:59:36.270Z,48.72
2018-01-27T09:00:38.748Z,54.55
2018-01-27T09:01:41.237Z,45.70
2018-01-27T09:02:43.702Z,50.30
2018-01-27T09:03:46.171Z,53.87
2018-01-27T09:04:48.656Z,54.33
2018-01-27T09:05:51.149Z,55.72
2018-01-27T09:06:53.619Z,61.63
2018-01-27T09:07:56.088Z,55.10
2018-01-27T09:08:58.571Z,48.38
2018-01-27T09:10:01.039Z,48.72
2018-01-27T09:11:03.536Z,50.10
2018-01-27T09:12:06.029Z,51.85
2018-01-27T09:13:08.517Z,54.17
2018-01-27T09:14:10.982Z,58.30
2018-01-27T09:15:13.465Z,52.65
2018-01-27T09:16:15.950Z,64.50
2018-01-27T09:17:18.453Z,63.95
2018-01-27T09:18:20.927Z,61.65
2018-01-27T09:19:23.395Z,57.97
2018-01-27T09:20:25.858Z,54.00
2018-01-27T09:21:28.322Z,63.87
2018-01-27T09:22:30.804Z,61.15
2018-01-27T09:23:33.329Z,58.65
2018-01-27T09:24:35.840Z,56.17
2018-01-27T09:25:38.318Z,61.13
2018-01-27T09:26:40.782Z,57.85
2018-01-27T09:27:43.250Z,56.70
2018-01-27T09:28:45.714Z,54.83
2018-01-27T09:29:48.178Z,74.72
2018-01-27T09:30:50.647Z,51.53
2018-01-27T09:31:53.129Z,59.88
2018-01-27T09:32:55.598Z,62.25
2018-01-27T09:33:58.081Z,57.70
2018-01-27T09:35:00.561Z,64.47
2018-01-27T09:36:03.032Z,57.75
2018-01-27T09:37:05.525Z,59.78
2018-01-27T09:38:08.001Z,61.47
2018-01-27T09:39:10.467Z,66.75
2018-01-27T09:40:12.930Z,69.87
2018-01-27T09:41:15.404Z,60.85
2018-01-27T09:42:17.884Z,73.65
2018-01-27T09:43:20.367Z,77.87
2018-01-27T09:44:22.848Z,79.53
2018-01-27T09:45:25.330Z,73.65
2018-01-27T09:46:27.813Z,69.32
2018-01-27T09:47:30.290Z,82.70
2018-01-27T09:48:32.776Z,74.00
2018-01-27T09:49:35.287Z,67.55
2018-01-27T09:50:37.768Z,68.85
2018-01-27T09:51:40.253Z,58.38
2018-01-27T09:52:42.723Z,66.22
2018-01-27T09:53:45.251Z,67.53
2018-01-27T09:54:47.728Z,66.43
2018-01-27T09:55:50.210Z,64.43
2018-01-27T09:56:52.695Z,73.45
2018-01-27T09:57:55.183Z,72.72
2018-01-27T09:58:57.657Z,64.90
2018-01-27T10:00:00.135Z,77.07
2018-01-27T10:01:02.598Z,77.10
2018-01-27T10:02:05.072Z,68.75
2018-01-27T10:03:07.538Z,72.60
2018-01-27T10:04:10.003Z,68.72
2018-01-27T10:05:12.466Z,87.95
2018-01-27T10:06:14.931Z,81.97
2018-01-27T10:07:17.417Z,79.97
2018-01-27T10:08:19.879Z,85.70
2018-01-27T10:09:22.362Z,79.87
2018-01-27T10:10:24.877Z,78.87
2018-01-27T10:11:27.342Z,78.25
2018-01-27T10:12:29.807Z,81.50
2018-01-27T10:13:32.280Z,77.78
2018-01-27T10:14:34.757Z,83.62
2018-01-27T10:15:37.234Z,84.78
2018-01-27T10:16:39.707Z,82.00
2018-01-27T10:17:42.175Z,90.55
2018-01-27T10:18:44.668Z,75.28
2018-01-27T10:19:47.150Z,77.82
2018-01-27T10:20:49.631Z,81.20
2018-01-27T10:21:52.104Z,85.35
2018-01-27T10:22:54.571Z,77.80
2018-01-27T10:23:57.055Z,80.35
2018-01-27T10:24:59.527Z,76.65
2018-01-27T10:26:02.006Z,75.53
2018-01-27T10:27:04.504Z,69.62
2018-01-27T10:28:07.002Z,80.12
2018-01-27T10:29:09.475Z,72.40
2018-01-27T10:30:11.966Z,73.65
2018-01-27T10:31:14.431Z,71.12
2018-01-27T10:32:16.918Z,75.25
2018-01-27T10:33:19.402Z,70.65
2018-01-27T10:34:21.895Z,62.53
2018-01-27T10:35:24.367Z,73.65
2018-01-27T10:36:26.843Z,62.08
2018-01-27T10:37:29.329Z,75.87
2018-01-27T10:38:31.799Z,71.35
2018-01-27T10:39:34.281Z,66.10
2018-01-27T10:40:36.766Z,74.28
2018-01-27T10:41:39.239Z,66.37
2018-01-27T10:42:41.745Z,68.03
2018-01-27T10:43:44.219Z,62.55
2018-01-27T10:44:46.686Z,65.53
2018-01-27T10:45:49.154Z,65.85
2018-01-27T10:46:51.641Z,63.97
2018-01-27T10:47:54.161Z,59.25
2018-01-27T10:48:56.645Z,64.50
2018-01-27T10:49:59.155Z,63.87
2018-01-27T10:51:01.652Z,63.08
2018-01-27T10:52:04.123Z,63.95
2018-01-27T10:53:06.591Z,57.92
2018-01-27T10:54:09.058Z,61.33
2018-01-27T10:55:11.536Z,63.08
2018-01-27T10:56:14.008Z,60.50
2018-01-27T10:57:16.483Z,61.90
2018-01-27T10:58:18.979Z,71.37
2018-01-27T10:59:21.446Z,64.50
2018-01-27T11:00:23.926Z,62.00
2018-01-27T11:01:26.398Z,60.72
2018-01-27T11:02:28.866Z,52.65
2018-01-27T11:03:32.073Z,65.95
2018-01-27T11:04:34.539Z,52.20
2018-01-27T11:05:37.006Z,53.45
2018-01-27T11:06:39.471Z,58.75
2018-01-27T11:07:41.957Z,53.33
2018-01-27T11:08:44.441Z,51.65
2018-01-27T11:09:46.911Z,50.95
2018-01-27T11:10:49.384Z,49.25
2018-01-27T11:11:51.855Z,56.25
2018-01-27T11:12:54.324Z,51.90
2018-01-27T11:13:56.847Z,49.92
2018-01-27T11:14:59.317Z,67.72
2018-01-27T11:16:01.810Z,55.30
2018-01-27T11:17:04.289Z,58.17
2018-01-27T11:18:06.772Z,53.45
2018-01-27T11:19:09.295Z,63.05
2018-01-27T11:20:12.855Z,63.95
2018-01-27T11:21:15.400Z,66.28
2018-01-27T11:22:18.693Z,55.00
2018-01-27T11:23:21.159Z,56.37
2018-01-27T11:24:23.637Z,54.45
2018-01-27T11:25:26.148Z,60.95
2018-01-27T11:26:28.644Z,61.88
2018-01-27T11:27:31.125Z,61.88
2018-01-27T11:28:33.595Z,56.72
2018-01-27T11:29:36.058Z,60.17
2018-01-27T11:30:38.527Z,62.08
2018-01-27T11:31:41.027Z,57.05
2018-01-27T11:32:43.555Z,57.85
2018-01-27T11:33:46.031Z,56.00
2018-01-27T11:34:48.536Z,57.28
2018-01-27T11:35:51.042Z,57.42
2018-01-27T11:36:53.554Z,60.72
2018-01-27T11:37:56.070Z,53.80
2018-01-27T11:38:58.614Z,49.08
2018-01-27T11:40:01.296Z,51.88
2018-01-27T11:41:04.244Z,49.90
2018-01-27T11:42:06.727Z,55.15
2018-01-27T11:43:09.220Z,61.08
2018-01-27T11:44:11.723Z,56.05
2018-01-27T11:45:14.213Z,65.78
2018-01-27T11:46:16.753Z,52.47
2018-01-27T11:47:19.253Z,54.53
2018-01-27T11:48:21.751Z,60.00
2018-01-27T11:49:24.230Z,56.70
2018-01-27T11:50:26.733Z,56.78
2018-01-27T11:51:29.235Z,53.78
2018-01-27T11:52:31.714Z,52.30
2018-01-27T11:53:34.209Z,57.45
2018-01-27T11:54:36.776Z,50.47
2018-01-27T11:55:39.246Z,53.40
2018-01-27T11:56:41.742Z,48.38
2018-01-27T11:57:44.233Z,53.95
2018-01-27T11:58:46.725Z,55.00
2018-01-27T11:59:49.199Z,56.22
2018-01-27T12:00:51.685Z,51.67
2018-01-27T12:01:54.155Z,51.40
2018-01-27T12:02:56.628Z,52.72
2018-01-27T12:03:59.117Z,61.40
2018-01-27T12:05:01.592Z,50.30
2018-01-27T12:06:04.076Z,50.28
2018-01-27T12:07:06.562Z,54.03
2018-01-27T12:08:09.027Z,51.20
2018-01-27T12:09:11.515Z,50.12
2018-01-27T12:10:13.991Z,49.83
2018-01-27T12:11:16.474Z,48.08
2018-01-27T12:12:18.962Z,52.78
2018-01-27T12:13:21.459Z,53.10
2018-01-27T12:14:23.951Z,48.03
2018-01-27T12:15:26.437Z,46.83
2018-01-27T12:16:28.922Z,46.30
2018-01-27T12:17:31.396Z,49.75
2018-01-27T12:18:33.885Z,49.10
2018-01-27T12:19:36.404Z,46.00
2018-01-27T12:20:38.921Z,50.35
2018-01-27T12:21:41.478Z,45.95
2018-01-27T12:22:43.945Z,43.30
2018-01-27T12:23:46.433Z,48.80
2018-01-27T12:24:48.903Z,44.67
2018-01-27T12:25:51.410Z,42.35
2018-01-27T12:26:53.892Z,41.37
2018-01-27T12:27:56.381Z,46.10
2018-01-27T12:28:58.878Z,53.17
2018-01-27T12:30:01.450Z,46.00
2018-01-27T12:31:04.160Z,49.00
2018-01-27T12:32:06.655Z,42.03
2018-01-27T12:33:09.151Z,47.55
2018-01-27T12:34:11.638Z,46.95
2018-01-27T12:35:14.181Z,42.85
2018-01-27T12:36:16.665Z,44.97
2018-01-27T12:37:19.153Z,43.97
2018-01-27T12:38:21.629Z,39.78
2018-01-27T12:39:24.111Z,43.85
2018-01-27T12:40:26.608Z,39.90
2018-01-27T12:41:29.097Z,38.60
2018-01-27T12:42:31.584Z,39.20
2018-01-27T12:43:34.059Z,44.63
2018-01-27T12:44:36.543Z,39.63
2018-01-27T12:45:39.050Z,43.25
2018-01-27T12:46:41.527Z,40.85
2018-01-27T12:47:44.003Z,43.83
2018-01-27T12:48:46.479Z,43.95
2018-01-27T12:49:48.960Z,47.00
2018-01-27T12:50:51.427Z,36.25
2018-01-27T12:51:53.903Z,33.55
2018-01-27T12:52:56.389Z,43.08
2018-01-27T12:53:58.880Z,40.25
2018-01-27T12:55:01.355Z,42.00
2018-01-27T12:56:03.827Z,38.38
2018-01-27T12:57:06.404Z,39.25
2018-01-27T12:58:08.918Z,35.83
2018-01-27T12:59:11.380Z,39.35
2018-01-27T13:00:13.877Z,40.63
2018-01-27T13:01:16.347Z,42.60
2018-01-27T13:02:18.823Z,40.70
2018-01-27T13:03:21.312Z,41.95
2018-01-27T13:04:23.778Z,43.97
2018-01-27T13:05:26.268Z,44.45
2018-01-27T13:06:28.761Z,40.53
2018-01-27T13:07:31.249Z,42.47
2018-01-27T13:08:33.737Z,36.15
2018-01-27T13:09:36.238Z,35.70
2018-01-27T13:10:38.707Z,36.25
2018-01-27T13:11:41.175Z,41.20
2018-01-27T13:12:43.661Z,31.65
2018-01-27T13:13:46.132Z,43.28
2018-01-27T13:14:48.609Z,36.47
2018-01-27T13:15:51.098Z,33.25
2018-01-27T13:16:53.593Z,39.38
2018-01-27T13:17:56.072Z,34.00
2018-01-27T13:18:58.586Z,42.50
2018-01-27T13:20:01.087Z,34.97
2018-01-27T13:21:03.669Z,36.42
2018-01-27T13:22:06.167Z,40.95
2018-01-27T13:23:12.255Z,41.80
2018-01-27T13:24:14.862Z,43.22
2018-01-27T13:25:17.410Z,41.78